sensor_id;sensor_type;location;lat;lon;timestamp;temperature;humidity
64685;DHT22;51109;47.414;18.954;2022-07-03T00:01:01;21.10;99.90
64685;DHT22;51109;47.414;18.954;2022-07-03T00:03:27;21.10;99.90
64685;DHT22;51109;47.414;18.954;2022-07-03T00:05:53;21.00;99.90
64685;DHT22;51109;47.414;18.954;2022-07-03T00:08:19;20.90;99.90
64685;DHT22;51109;47.414;18.954;2022-07-03T00:10:45;20.80;99.90
64685;DHT22;51109;47.414;18.954;2022-07-03T00:13:11;20.80;99.90
64685;DHT22;51109;47.414;18.954;2022-07-03T00:15:37;20.90;99.90
64685;DHT22;51109;47.414;18.954;2022-07-03T00:18:04;20.90;99.90
64685;DHT22;51109;47.414;18.954;2022-07-03T00:20:35;20.90;99.90
64685;DHT22;51109;47.414;18.954;2022-07-03T00:23:04;20.90;99.90
64685;DHT22;51109;47.414;18.954;2022-07-03T00:25:31;20.90;99.90
64685;DHT22;51109;47.414;18.954;2022-07-03T00:27:59;21.10;99.90
64685;DHT22;51109;47.414;18.954;2022-07-03T00:30:25;21.10;99.90
64685;DHT22;51109;47.414;18.954;2022-07-03T00:32:53;21.20;99.90
64685;DHT22;51109;47.414;18.954;2022-07-03T00:35:19;21.20;99.90
64685;DHT22;51109;47.414;18.954;2022-07-03T00:37:45;20.90;99.90
64685;DHT22;51109;47.414;18.954;2022-07-03T00:40:12;20.70;99.90
64685;DHT22;51109;47.414;18.954;2022-07-03T00:42:38;20.60;99.90
64685;DHT22;51109;47.414;18.954;2022-07-03T00:45:08;20.50;99.90
64685;DHT22;51109;47.414;18.954;2022-07-03T00:47:36;20.40;99.90
64685;DHT22;51109;47.414;18.954;2022-07-03T00:50:07;20.50;99.90
64685;DHT22;51109;47.414;18.954;2022-07-03T00:52:36;20.50;99.90
64685;DHT22;51109;47.414;18.954;2022-07-03T00:55:07;20.50;99.90
64685;DHT22;51109;47.414;18.954;2022-07-03T00:57:35;20.40;99.90
64685;DHT22;51109;47.414;18.954;2022-07-03T01:00:07;20.50;99.90
64685;DHT22;51109;47.414;18.954;2022-07-03T01:02:56;20.40;99.90
64685;DHT22;51109;47.414;18.954;2022-07-03T01:05:38;20.50;99.90
64685;DHT22;51109;47.414;18.954;2022-07-03T01:16:57;20.50;99.90
64685;DHT22;51109;47.414;18.954;2022-07-03T01:22:21;20.20;99.90
64685;DHT22;51109;47.414;18.954;2022-07-03T01:28:03;20.50;99.90
64685;DHT22;51109;47.414;18.954;2022-07-03T01:30:45;20.60;99.90
64685;DHT22;51109;47.414;18.954;2022-07-03T01:33:17;20.50;99.90
64685;DHT22;51109;47.414;18.954;2022-07-03T01:36:13;20.60;99.90
64685;DHT22;51109;47.414;18.954;2022-07-03T01:38:41;20.70;99.90
64685;DHT22;51109;47.414;18.954;2022-07-03T01:41:10;20.80;99.90
64685;DHT22;51109;47.414;18.954;2022-07-03T01:43:44;20.80;99.90
64685;DHT22;51109;47.414;18.954;2022-07-03T01:46:12;20.90;99.90
64685;DHT22;51109;47.414;18.954;2022-07-03T01:48:42;21.00;99.90
64685;DHT22;51109;47.414;18.954;2022-07-03T01:51:12;21.20;99.90
64685;DHT22;51109;47.414;18.954;2022-07-03T01:53:44;21.20;99.90
64685;DHT22;51109;47.414;18.954;2022-07-03T01:56:11;21.30;99.90
64685;DHT22;51109;47.414;18.954;2022-07-03T01:58:37;21.30;99.90
64685;DHT22;51109;47.414;18.954;2022-07-03T02:01:08;21.50;99.90
64685;DHT22;51109;47.414;18.954;2022-07-03T02:03:40;21.50;99.90
64685;DHT22;51109;47.414;18.954;2022-07-03T02:06:17;21.70;99.90
64685;DHT22;51109;47.414;18.954;2022-07-03T02:08:50;21.80;99.90
64685;DHT22;51109;47.414;18.954;2022-07-03T02:11:20;21.80;99.90
64685;DHT22;51109;47.414;18.954;2022-07-03T02:14:07;21.80;99.90
64685;DHT22;51109;47.414;18.954;2022-07-03T02:19:20;21.70;99.90
64685;DHT22;51109;47.414;18.954;2022-07-03T02:21:50;21.80;99.90
64685;DHT22;51109;47.414;18.954;2022-07-03T02:26:59;22.00;99.90
64685;DHT22;51109;47.414;18.954;2022-07-03T02:29:47;22.10;99.90
64685;DHT22;51109;47.414;18.954;2022-07-03T02:32:20;22.10;99.90
64685;DHT22;51109;47.414;18.954;2022-07-03T02:34:55;22.10;99.90
64685;DHT22;51109;47.414;18.954;2022-07-03T02:37:24;22.20;99.90
64685;DHT22;51109;47.414;18.954;2022-07-03T02:40:04;22.10;99.90
64685;DHT22;51109;47.414;18.954;2022-07-03T02:42:45;21.90;99.90
64685;DHT22;51109;47.414;18.954;2022-07-03T02:45:13;21.40;99.90
64685;DHT22;51109;47.414;18.954;2022-07-03T02:47:56;21.00;99.90
64685;DHT22;51109;47.414;18.954;2022-07-03T02:50:25;20.90;99.90
64685;DHT22;51109;47.414;18.954;2022-07-03T02:55:41;20.80;99.90
64685;DHT22;51109;47.414;18.954;2022-07-03T03:01:24;20.30;99.90
64685;DHT22;51109;47.414;18.954;2022-07-03T03:06:29;20.10;99.90
64685;DHT22;51109;47.414;18.954;2022-07-03T03:09:07;20.20;99.90
64685;DHT22;51109;47.414;18.954;2022-07-03T03:11:44;20.20;99.90
64685;DHT22;51109;47.414;18.954;2022-07-03T03:14:15;20.00;99.90
64685;DHT22;51109;47.414;18.954;2022-07-03T03:16:47;19.90;99.90
64685;DHT22;51109;47.414;18.954;2022-07-03T03:19:14;20.00;99.90
64685;DHT22;51109;47.414;18.954;2022-07-03T03:22:18;20.10;99.90
64685;DHT22;51109;47.414;18.954;2022-07-03T03:24:47;20.20;99.90
64685;DHT22;51109;47.414;18.954;2022-07-03T03:27:14;20.10;99.90
64685;DHT22;51109;47.414;18.954;2022-07-03T03:29:40;19.90;99.90
64685;DHT22;51109;47.414;18.954;2022-07-03T03:32:06;19.90;99.90
64685;DHT22;51109;47.414;18.954;2022-07-03T03:34:32;19.80;99.90
64685;DHT22;51109;47.414;18.954;2022-07-03T03:36:59;19.70;99.90
64685;DHT22;51109;47.414;18.954;2022-07-03T03:39:26;19.70;99.90
64685;DHT22;51109;47.414;18.954;2022-07-03T03:41:53;19.70;99.90
64685;DHT22;51109;47.414;18.954;2022-07-03T03:44:18;19.90;99.90
64685;DHT22;51109;47.414;18.954;2022-07-03T03:46:44;20.00;99.90
64685;DHT22;51109;47.414;18.954;2022-07-03T03:49:10;20.10;99.90
64685;DHT22;51109;47.414;18.954;2022-07-03T03:51:36;20.10;99.90
64685;DHT22;51109;47.414;18.954;2022-07-03T03:54:03;20.20;99.90
64685;DHT22;51109;47.414;18.954;2022-07-03T03:56:30;20.50;99.90
64685;DHT22;51109;47.414;18.954;2022-07-03T03:58:56;20.90;99.90
64685;DHT22;51109;47.414;18.954;2022-07-03T04:01:22;21.20;99.90
64685;DHT22;51109;47.414;18.954;2022-07-03T04:03:48;21.30;99.90
64685;DHT22;51109;47.414;18.954;2022-07-03T04:06:14;21.40;99.90
64685;DHT22;51109;47.414;18.954;2022-07-03T04:08:40;21.30;99.90
64685;DHT22;51109;47.414;18.954;2022-07-03T04:11:05;21.60;99.90
64685;DHT22;51109;47.414;18.954;2022-07-03T04:13:31;21.70;99.90
64685;DHT22;51109;47.414;18.954;2022-07-03T04:15:57;21.90;99.90
64685;DHT22;51109;47.414;18.954;2022-07-03T04:18:24;22.00;99.90
64685;DHT22;51109;47.414;18.954;2022-07-03T04:20:50;22.20;99.90
64685;DHT22;51109;47.414;18.954;2022-07-03T04:23:16;22.40;99.90
64685;DHT22;51109;47.414;18.954;2022-07-03T04:25:42;21.90;99.90
64685;DHT22;51109;47.414;18.954;2022-07-03T04:28:09;21.50;99.90
64685;DHT22;51109;47.414;18.954;2022-07-03T04:30:35;21.40;99.90
64685;DHT22;51109;47.414;18.954;2022-07-03T04:33:01;21.60;99.90
64685;DHT22;51109;47.414;18.954;2022-07-03T04:35:27;22.00;99.90
64685;DHT22;51109;47.414;18.954;2022-07-03T04:37:52;22.40;99.90
64685;DHT22;51109;47.414;18.954;2022-07-03T04:40:18;22.40;99.90
64685;DHT22;51109;47.414;18.954;2022-07-03T04:42:44;22.30;99.90
64685;DHT22;51109;47.414;18.954;2022-07-03T04:45:10;22.30;99.90
64685;DHT22;51109;47.414;18.954;2022-07-03T04:47:36;22.30;99.90
64685;DHT22;51109;47.414;18.954;2022-07-03T04:50:02;22.40;99.90
64685;DHT22;51109;47.414;18.954;2022-07-03T04:52:28;22.40;99.90
64685;DHT22;51109;47.414;18.954;2022-07-03T04:54:54;22.60;99.90
64685;DHT22;51109;47.414;18.954;2022-07-03T04:57:20;22.70;99.90
64685;DHT22;51109;47.414;18.954;2022-07-03T04:59:46;23.00;99.90
64685;DHT22;51109;47.414;18.954;2022-07-03T05:02:12;23.40;99.90
64685;DHT22;51109;47.414;18.954;2022-07-03T05:04:38;23.80;99.90
64685;DHT22;51109;47.414;18.954;2022-07-03T05:07:04;23.90;99.90
64685;DHT22;51109;47.414;18.954;2022-07-03T05:09:30;24.00;99.90
64685;DHT22;51109;47.414;18.954;2022-07-03T05:11:55;24.10;99.90
64685;DHT22;51109;47.414;18.954;2022-07-03T05:14:21;24.20;99.90
64685;DHT22;51109;47.414;18.954;2022-07-03T05:16:47;24.30;99.90
64685;DHT22;51109;47.414;18.954;2022-07-03T05:19:13;24.00;99.90
64685;DHT22;51109;47.414;18.954;2022-07-03T05:21:39;23.90;99.90
64685;DHT22;51109;47.414;18.954;2022-07-03T05:24:05;23.70;99.90
64685;DHT22;51109;47.414;18.954;2022-07-03T05:26:31;24.00;99.90
64685;DHT22;51109;47.414;18.954;2022-07-03T05:28:57;24.20;99.90
64685;DHT22;51109;47.414;18.954;2022-07-03T05:31:23;24.30;99.90
64685;DHT22;51109;47.414;18.954;2022-07-03T05:33:49;24.30;99.90
64685;DHT22;51109;47.414;18.954;2022-07-03T05:36:15;24.50;99.90
64685;DHT22;51109;47.414;18.954;2022-07-03T05:38:40;24.70;99.90
64685;DHT22;51109;47.414;18.954;2022-07-03T05:41:25;24.80;99.90
64685;DHT22;51109;47.414;18.954;2022-07-03T05:43:50;25.00;99.90
64685;DHT22;51109;47.414;18.954;2022-07-03T05:46:16;25.10;99.90
64685;DHT22;51109;47.414;18.954;2022-07-03T05:48:42;25.20;99.90
64685;DHT22;51109;47.414;18.954;2022-07-03T05:51:08;25.40;99.90
64685;DHT22;51109;47.414;18.954;2022-07-03T05:53:34;25.70;99.90
64685;DHT22;51109;47.414;18.954;2022-07-03T05:56:00;25.80;99.90
64685;DHT22;51109;47.414;18.954;2022-07-03T05:58:26;26.00;99.90
64685;DHT22;51109;47.414;18.954;2022-07-03T06:00:52;26.10;99.90
64685;DHT22;51109;47.414;18.954;2022-07-03T06:03:18;26.10;99.90
64685;DHT22;51109;47.414;18.954;2022-07-03T06:05:44;26.10;99.90
64685;DHT22;51109;47.414;18.954;2022-07-03T06:08:10;26.30;99.90
64685;DHT22;51109;47.414;18.954;2022-07-03T06:10:36;26.30;99.90
64685;DHT22;51109;47.414;18.954;2022-07-03T06:13:02;26.30;99.90
64685;DHT22;51109;47.414;18.954;2022-07-03T06:15:28;26.10;99.90
64685;DHT22;51109;47.414;18.954;2022-07-03T06:17:54;26.10;99.90
64685;DHT22;51109;47.414;18.954;2022-07-03T06:20:20;26.10;99.90
64685;DHT22;51109;47.414;18.954;2022-07-03T06:22:46;25.90;99.90
64685;DHT22;51109;47.414;18.954;2022-07-03T06:25:12;26.00;99.90
64685;DHT22;51109;47.414;18.954;2022-07-03T06:27:38;26.30;99.90
64685;DHT22;51109;47.414;18.954;2022-07-03T06:30:04;26.30;99.90
64685;DHT22;51109;47.414;18.954;2022-07-03T06:32:30;25.80;99.90
64685;DHT22;51109;47.414;18.954;2022-07-03T06:34:56;25.60;99.90
64685;DHT22;51109;47.414;18.954;2022-07-03T06:37:22;25.40;99.90
64685;DHT22;51109;47.414;18.954;2022-07-03T06:39:48;25.40;99.90
64685;DHT22;51109;47.414;18.954;2022-07-03T06:42:14;25.50;99.90
64685;DHT22;51109;47.414;18.954;2022-07-03T06:44:40;25.80;99.90
64685;DHT22;51109;47.414;18.954;2022-07-03T06:47:10;25.80;99.90
64685;DHT22;51109;47.414;18.954;2022-07-03T06:49:36;26.10;99.90
64685;DHT22;51109;47.414;18.954;2022-07-03T06:52:02;26.00;99.90
64685;DHT22;51109;47.414;18.954;2022-07-03T06:54:28;26.30;99.90
64685;DHT22;51109;47.414;18.954;2022-07-03T06:56:54;26.80;99.90
64685;DHT22;51109;47.414;18.954;2022-07-03T06:59:20;26.90;99.90
64685;DHT22;51109;47.414;18.954;2022-07-03T07:01:46;26.80;99.90
64685;DHT22;51109;47.414;18.954;2022-07-03T07:04:12;26.70;99.90
64685;DHT22;51109;47.414;18.954;2022-07-03T07:06:37;27.00;99.90
64685;DHT22;51109;47.414;18.954;2022-07-03T07:09:04;27.10;99.90
64685;DHT22;51109;47.414;18.954;2022-07-03T07:11:30;27.20;99.90
64685;DHT22;51109;47.414;18.954;2022-07-03T07:13:56;27.40;99.90
64685;DHT22;51109;47.414;18.954;2022-07-03T07:16:22;27.60;99.90
64685;DHT22;51109;47.414;18.954;2022-07-03T07:18:48;27.90;99.90
64685;DHT22;51109;47.414;18.954;2022-07-03T07:21:14;28.00;99.90
64685;DHT22;51109;47.414;18.954;2022-07-03T07:23:40;28.00;99.90
64685;DHT22;51109;47.414;18.954;2022-07-03T07:26:06;28.00;99.90
64685;DHT22;51109;47.414;18.954;2022-07-03T07:28:34;27.80;99.90
64685;DHT22;51109;47.414;18.954;2022-07-03T07:31:01;27.90;99.90
64685;DHT22;51109;47.414;18.954;2022-07-03T07:33:27;28.00;99.90
64685;DHT22;51109;47.414;18.954;2022-07-03T07:35:53;28.00;99.90
64685;DHT22;51109;47.414;18.954;2022-07-03T07:38:19;27.90;99.90
64685;DHT22;51109;47.414;18.954;2022-07-03T07:40:46;27.50;99.90
64685;DHT22;51109;47.414;18.954;2022-07-03T07:43:12;27.40;99.90
64685;DHT22;51109;47.414;18.954;2022-07-03T07:45:39;27.60;99.90
64685;DHT22;51109;47.414;18.954;2022-07-03T07:48:05;27.80;99.90
64685;DHT22;51109;47.414;18.954;2022-07-03T07:50:31;28.00;99.90
64685;DHT22;51109;47.414;18.954;2022-07-03T07:52:57;27.70;99.90
64685;DHT22;51109;47.414;18.954;2022-07-03T07:55:23;27.70;99.90
64685;DHT22;51109;47.414;18.954;2022-07-03T07:57:51;27.70;99.90
64685;DHT22;51109;47.414;18.954;2022-07-03T08:00:19;27.50;99.90
64685;DHT22;51109;47.414;18.954;2022-07-03T08:02:46;27.40;99.90
64685;DHT22;51109;47.414;18.954;2022-07-03T08:05:30;27.70;99.90
64685;DHT22;51109;47.414;18.954;2022-07-03T08:10:45;28.00;99.90
64685;DHT22;51109;47.414;18.954;2022-07-03T08:13:12;28.10;99.90
64685;DHT22;51109;47.414;18.954;2022-07-03T08:15:39;28.10;99.90
64685;DHT22;51109;47.414;18.954;2022-07-03T08:18:05;27.80;99.90
64685;DHT22;51109;47.414;18.954;2022-07-03T08:20:32;28.00;99.90
64685;DHT22;51109;47.414;18.954;2022-07-03T08:22:58;28.00;99.90
64685;DHT22;51109;47.414;18.954;2022-07-03T08:25:25;27.80;99.90
64685;DHT22;51109;47.414;18.954;2022-07-03T08:27:51;28.10;99.90
64685;DHT22;51109;47.414;18.954;2022-07-03T08:30:17;28.40;99.90
64685;DHT22;51109;47.414;18.954;2022-07-03T08:32:44;28.50;99.90
64685;DHT22;51109;47.414;18.954;2022-07-03T08:35:11;28.70;99.90
64685;DHT22;51109;47.414;18.954;2022-07-03T08:37:37;28.80;99.90
64685;DHT22;51109;47.414;18.954;2022-07-03T08:40:07;28.90;99.90
64685;DHT22;51109;47.414;18.954;2022-07-03T08:42:36;29.10;99.90
64685;DHT22;51109;47.414;18.954;2022-07-03T08:45:02;29.00;99.90
64685;DHT22;51109;47.414;18.954;2022-07-03T08:47:31;28.90;99.90
64685;DHT22;51109;47.414;18.954;2022-07-03T08:49:58;28.90;99.90
64685;DHT22;51109;47.414;18.954;2022-07-03T08:52:26;29.00;99.90
64685;DHT22;51109;47.414;18.954;2022-07-03T08:54:52;29.00;99.90
64685;DHT22;51109;47.414;18.954;2022-07-03T08:57:18;28.70;99.90
64685;DHT22;51109;47.414;18.954;2022-07-03T08:59:49;28.60;99.90
64685;DHT22;51109;47.414;18.954;2022-07-03T09:02:17;28.40;99.90
64685;DHT22;51109;47.414;18.954;2022-07-03T09:04:43;28.30;99.90
64685;DHT22;51109;47.414;18.954;2022-07-03T09:07:11;28.70;99.90
64685;DHT22;51109;47.414;18.954;2022-07-03T09:09:39;29.00;99.90
64685;DHT22;51109;47.414;18.954;2022-07-03T09:12:06;29.50;99.90
64685;DHT22;51109;47.414;18.954;2022-07-03T09:14:32;29.70;99.90
64685;DHT22;51109;47.414;18.954;2022-07-03T09:16:59;29.90;99.90
64685;DHT22;51109;47.414;18.954;2022-07-03T09:19:46;30.00;99.90
64685;DHT22;51109;47.414;18.954;2022-07-03T09:22:21;30.10;99.90
64685;DHT22;51109;47.414;18.954;2022-07-03T09:24:52;30.30;99.90
64685;DHT22;51109;47.414;18.954;2022-07-03T09:27:20;30.50;99.90
64685;DHT22;51109;47.414;18.954;2022-07-03T09:30:07;30.20;99.90
64685;DHT22;51109;47.414;18.954;2022-07-03T09:35:22;30.40;99.90
64685;DHT22;51109;47.414;18.954;2022-07-03T09:37:59;30.50;99.90
64685;DHT22;51109;47.414;18.954;2022-07-03T09:43:13;30.70;99.90
64685;DHT22;51109;47.414;18.954;2022-07-03T09:45:54;30.90;99.90
64685;DHT22;51109;47.414;18.954;2022-07-03T09:48:25;30.90;99.90
64685;DHT22;51109;47.414;18.954;2022-07-03T09:53:51;30.40;99.90
64685;DHT22;51109;47.414;18.954;2022-07-03T09:56:19;30.30;99.90
64685;DHT22;51109;47.414;18.954;2022-07-03T10:01:34;30.70;99.90
64685;DHT22;51109;47.414;18.954;2022-07-03T10:09:16;31.10;99.90
64685;DHT22;51109;47.414;18.954;2022-07-03T10:11:43;31.10;99.90
64685;DHT22;51109;47.414;18.954;2022-07-03T10:14:20;31.20;99.90
64685;DHT22;51109;47.414;18.954;2022-07-03T10:16:47;31.20;99.90
64685;DHT22;51109;47.414;18.954;2022-07-03T10:19:30;31.30;99.90
64685;DHT22;51109;47.414;18.954;2022-07-03T10:22:03;31.50;99.90
64685;DHT22;51109;47.414;18.954;2022-07-03T10:24:32;31.70;99.90
64685;DHT22;51109;47.414;18.954;2022-07-03T10:26:59;31.80;99.90
64685;DHT22;51109;47.414;18.954;2022-07-03T10:29:26;31.90;99.90
64685;DHT22;51109;47.414;18.954;2022-07-03T10:31:52;31.90;99.90
64685;DHT22;51109;47.414;18.954;2022-07-03T10:34:26;31.50;99.90
64685;DHT22;51109;47.414;18.954;2022-07-03T10:37:02;31.60;99.90
64685;DHT22;51109;47.414;18.954;2022-07-03T10:42:44;31.80;99.90
64685;DHT22;51109;47.414;18.954;2022-07-03T10:45:30;31.90;99.90
64685;DHT22;51109;47.414;18.954;2022-07-03T10:47:57;32.10;99.70
64685;DHT22;51109;47.414;18.954;2022-07-03T10:50:24;32.00;99.90
64685;DHT22;51109;47.414;18.954;2022-07-03T10:52:50;32.00;99.90
64685;DHT22;51109;47.414;18.954;2022-07-03T10:55:17;31.90;99.50
64685;DHT22;51109;47.414;18.954;2022-07-03T10:58:06;31.80;98.80
64685;DHT22;51109;47.414;18.954;2022-07-03T11:00:54;31.80;99.70
64685;DHT22;51109;47.414;18.954;2022-07-03T11:03:54;31.80;98.30
64685;DHT22;51109;47.414;18.954;2022-07-03T11:09:12;32.00;97.70
64685;DHT22;51109;47.414;18.954;2022-07-03T11:11:41;31.80;98.20
64685;DHT22;51109;47.414;18.954;2022-07-03T11:14:29;31.90;99.40
64685;DHT22;51109;47.414;18.954;2022-07-03T11:17:17;32.00;98.60
64685;DHT22;51109;47.414;18.954;2022-07-03T11:19:45;31.90;98.50
64685;DHT22;51109;47.414;18.954;2022-07-03T11:23:00;32.00;97.50
64685;DHT22;51109;47.414;18.954;2022-07-03T11:25:24;32.20;99.10
64685;DHT22;51109;47.414;18.954;2022-07-03T11:27:51;32.40;97.70
64685;DHT22;51109;47.414;18.954;2022-07-03T11:30:18;32.40;96.40
64685;DHT22;51109;47.414;18.954;2022-07-03T11:32:51;32.30;96.30
64685;DHT22;51109;47.414;18.954;2022-07-03T11:35:46;32.40;97.80
64685;DHT22;51109;47.414;18.954;2022-07-03T11:38:20;32.70;97.10
64685;DHT22;51109;47.414;18.954;2022-07-03T11:40:48;32.80;97.70
64685;DHT22;51109;47.414;18.954;2022-07-03T11:43:15;32.70;95.60
64685;DHT22;51109;47.414;18.954;2022-07-03T11:45:41;32.60;96.70
64685;DHT22;51109;47.414;18.954;2022-07-03T11:48:15;32.70;96.00
64685;DHT22;51109;47.414;18.954;2022-07-03T11:50:43;32.50;95.70
64685;DHT22;51109;47.414;18.954;2022-07-03T11:53:26;32.40;96.50
64685;DHT22;51109;47.414;18.954;2022-07-03T11:55:55;32.50;97.30
64685;DHT22;51109;47.414;18.954;2022-07-03T11:58:22;32.50;97.80
64685;DHT22;51109;47.414;18.954;2022-07-03T12:00:48;32.90;96.40
64685;DHT22;51109;47.414;18.954;2022-07-03T12:03:25;33.10;96.10
64685;DHT22;51109;47.414;18.954;2022-07-03T12:05:56;33.20;95.10
64685;DHT22;51109;47.414;18.954;2022-07-03T12:08:27;33.10;95.50
64685;DHT22;51109;47.414;18.954;2022-07-03T12:10:59;32.90;95.30
64685;DHT22;51109;47.414;18.954;2022-07-03T12:13:26;32.70;96.00
64685;DHT22;51109;47.414;18.954;2022-07-03T12:15:53;32.40;95.90
64685;DHT22;51109;47.414;18.954;2022-07-03T12:18:19;32.60;97.20
64685;DHT22;51109;47.414;18.954;2022-07-03T12:20:45;33.00;95.70
64685;DHT22;51109;47.414;18.954;2022-07-03T12:23:11;33.10;95.40
64685;DHT22;51109;47.414;18.954;2022-07-03T12:25:41;32.90;95.00
64685;DHT22;51109;47.414;18.954;2022-07-03T12:28:09;32.80;95.50
64685;DHT22;51109;47.414;18.954;2022-07-03T12:30:35;32.90;96.20
64685;DHT22;51109;47.414;18.954;2022-07-03T12:33:02;33.00;94.00
64685;DHT22;51109;47.414;18.954;2022-07-03T12:35:28;33.10;93.90
64685;DHT22;51109;47.414;18.954;2022-07-03T12:37:54;33.10;93.30
64685;DHT22;51109;47.414;18.954;2022-07-03T12:40:20;33.10;92.30
64685;DHT22;51109;47.414;18.954;2022-07-03T12:45:19;33.30;92.80
64685;DHT22;51109;47.414;18.954;2022-07-03T12:47:59;33.40;93.60
64685;DHT22;51109;47.414;18.954;2022-07-03T12:50:26;33.50;91.30
64685;DHT22;51109;47.414;18.954;2022-07-03T12:52:54;33.70;93.10
64685;DHT22;51109;47.414;18.954;2022-07-03T12:55:24;33.70;91.60
64685;DHT22;51109;47.414;18.954;2022-07-03T12:58:08;33.60;91.40
64685;DHT22;51109;47.414;18.954;2022-07-03T13:00:52;33.50;90.30
64685;DHT22;51109;47.414;18.954;2022-07-03T13:03:34;33.50;89.40
64685;DHT22;51109;47.414;18.954;2022-07-03T13:06:01;33.50;90.90
64685;DHT22;51109;47.414;18.954;2022-07-03T13:08:27;33.60;89.40
64685;DHT22;51109;47.414;18.954;2022-07-03T13:10:58;33.60;91.00
64685;DHT22;51109;47.414;18.954;2022-07-03T13:13:24;33.80;91.70
64685;DHT22;51109;47.414;18.954;2022-07-03T13:15:51;33.90;89.00
64685;DHT22;51109;47.414;18.954;2022-07-03T13:18:17;33.80;88.00
64685;DHT22;51109;47.414;18.954;2022-07-03T13:20:43;33.80;87.40
64685;DHT22;51109;47.414;18.954;2022-07-03T13:23:10;33.60;88.60
64685;DHT22;51109;47.414;18.954;2022-07-03T13:25:37;33.70;90.10
64685;DHT22;51109;47.414;18.954;2022-07-03T13:28:12;33.90;89.80
64685;DHT22;51109;47.414;18.954;2022-07-03T13:30:40;34.10;89.90
64685;DHT22;51109;47.414;18.954;2022-07-03T13:33:07;34.20;88.90
64685;DHT22;51109;47.414;18.954;2022-07-03T13:35:33;33.80;85.60
64685;DHT22;51109;47.414;18.954;2022-07-03T13:37:59;33.60;86.70
64685;DHT22;51109;47.414;18.954;2022-07-03T13:40:25;33.80;89.10
64685;DHT22;51109;47.414;18.954;2022-07-03T13:42:51;34.00;88.60
64685;DHT22;51109;47.414;18.954;2022-07-03T13:45:17;34.20;88.20
64685;DHT22;51109;47.414;18.954;2022-07-03T13:47:43;34.30;85.70
64685;DHT22;51109;47.414;18.954;2022-07-03T13:50:09;34.40;84.70
64685;DHT22;51109;47.414;18.954;2022-07-03T13:52:35;34.60;88.80
64685;DHT22;51109;47.414;18.954;2022-07-03T13:55:03;34.80;85.60
64685;DHT22;51109;47.414;18.954;2022-07-03T13:57:29;34.60;83.80
64685;DHT22;51109;47.414;18.954;2022-07-03T13:59:55;34.50;85.10
64685;DHT22;51109;47.414;18.954;2022-07-03T14:02:20;34.40;91.00
64685;DHT22;51109;47.414;18.954;2022-07-03T14:04:46;34.10;84.00
64685;DHT22;51109;47.414;18.954;2022-07-03T14:07:12;34.10;84.30
64685;DHT22;51109;47.414;18.954;2022-07-03T14:09:38;34.00;85.20
64685;DHT22;51109;47.414;18.954;2022-07-03T14:12:04;34.10;84.80
64685;DHT22;51109;47.414;18.954;2022-07-03T14:14:30;34.20;83.60
64685;DHT22;51109;47.414;18.954;2022-07-03T14:16:56;34.10;84.90
64685;DHT22;51109;47.414;18.954;2022-07-03T14:19:22;34.20;85.00
64685;DHT22;51109;47.414;18.954;2022-07-03T14:21:48;34.20;83.20
64685;DHT22;51109;47.414;18.954;2022-07-03T14:24:14;34.20;81.40
64685;DHT22;51109;47.414;18.954;2022-07-03T14:26:39;33.80;81.80
64685;DHT22;51109;47.414;18.954;2022-07-03T14:29:24;33.80;82.60
64685;DHT22;51109;47.414;18.954;2022-07-03T14:32:08;34.00;81.90
64685;DHT22;51109;47.414;18.954;2022-07-03T14:34:52;34.30;82.60
64685;DHT22;51109;47.414;18.954;2022-07-03T14:37:18;34.50;80.30
64685;DHT22;51109;47.414;18.954;2022-07-03T14:39:48;34.80;80.90
64685;DHT22;51109;47.414;18.954;2022-07-03T14:42:15;34.70;80.40
64685;DHT22;51109;47.414;18.954;2022-07-03T14:44:43;34.70;81.10
64685;DHT22;51109;47.414;18.954;2022-07-03T14:47:09;34.50;79.60
64685;DHT22;51109;47.414;18.954;2022-07-03T14:49:35;34.60;81.40
64685;DHT22;51109;47.414;18.954;2022-07-03T14:52:02;34.70;81.60
64685;DHT22;51109;47.414;18.954;2022-07-03T14:54:28;34.70;79.70
64685;DHT22;51109;47.414;18.954;2022-07-03T14:56:58;34.70;80.00
64685;DHT22;51109;47.414;18.954;2022-07-03T15:02:38;34.60;79.70
64685;DHT22;51109;47.414;18.954;2022-07-03T15:05:12;34.60;81.10
64685;DHT22;51109;47.414;18.954;2022-07-03T15:07:43;34.80;80.70
64685;DHT22;51109;47.414;18.954;2022-07-03T15:10:12;34.70;79.90
64685;DHT22;51109;47.414;18.954;2022-07-03T15:12:42;34.80;78.80
64685;DHT22;51109;47.414;18.954;2022-07-03T15:15:14;34.90;78.50
64685;DHT22;51109;47.414;18.954;2022-07-03T15:17:41;34.90;80.40
64685;DHT22;51109;47.414;18.954;2022-07-03T15:20:11;34.80;80.50
64685;DHT22;51109;47.414;18.954;2022-07-03T15:22:45;34.70;79.60
64685;DHT22;51109;47.414;18.954;2022-07-03T15:25:14;34.90;78.40
64685;DHT22;51109;47.414;18.954;2022-07-03T15:27:41;34.90;78.60
64685;DHT22;51109;47.414;18.954;2022-07-03T15:30:09;35.00;77.20
64685;DHT22;51109;47.414;18.954;2022-07-03T15:32:36;35.20;77.10
64685;DHT22;51109;47.414;18.954;2022-07-03T15:35:02;35.20;77.80
64685;DHT22;51109;47.414;18.954;2022-07-03T15:53:19;36.10;74.00
64685;DHT22;51109;47.414;18.954;2022-07-03T15:55:48;36.20;72.70
64685;DHT22;51109;47.414;18.954;2022-07-03T15:58:26;36.20;75.00
64685;DHT22;51109;47.414;18.954;2022-07-03T16:00:57;35.90;70.30
64685;DHT22;51109;47.414;18.954;2022-07-03T16:03:59;36.20;71.20
64685;DHT22;51109;47.414;18.954;2022-07-03T16:06:26;36.70;71.40
64685;DHT22;51109;47.414;18.954;2022-07-03T16:08:53;36.40;72.50
64685;DHT22;51109;47.414;18.954;2022-07-03T16:11:20;36.40;71.80
64685;DHT22;51109;47.414;18.954;2022-07-03T16:13:46;36.30;71.00
64685;DHT22;51109;47.414;18.954;2022-07-03T16:16:16;36.60;73.00
64685;DHT22;51109;47.414;18.954;2022-07-03T16:18:44;36.50;70.20
64685;DHT22;51109;47.414;18.954;2022-07-03T16:21:11;36.50;71.80
64685;DHT22;51109;47.414;18.954;2022-07-03T16:23:38;36.30;70.70
64685;DHT22;51109;47.414;18.954;2022-07-03T16:26:06;36.00;68.40
64685;DHT22;51109;47.414;18.954;2022-07-03T16:28:32;35.80;67.60
64685;DHT22;51109;47.414;18.954;2022-07-03T16:31:00;35.80;69.10
64685;DHT22;51109;47.414;18.954;2022-07-03T16:33:32;36.20;68.50
64685;DHT22;51109;47.414;18.954;2022-07-03T16:36:08;36.30;70.40
64685;DHT22;51109;47.414;18.954;2022-07-03T16:38:51;36.40;69.90
64685;DHT22;51109;47.414;18.954;2022-07-03T16:41:20;36.30;69.50
64685;DHT22;51109;47.414;18.954;2022-07-03T16:43:52;35.80;71.10